Aviation Digital Data Service (ADDS)

Output produced by METARs form (0047 UTC 23 March 2019)
found at http://www.aviationweather.gov/metar/data/
 
Forecast for: DNMN (MINNA AIRPORT , NG)
Text: TAF DNMN 222150Z 2300/2406 14006KT CAVOK
Forecast period: 0000 to 1000 UTC 23 March 2019
Forecast type: FROM: standard forecast or significant change
Winds: from the SE (140 degrees) at 7 MPH (6 knots; 3.1 m/s)
Visibility: 6 or more miles 10+ km)
Ceiling: unknown
Clouds: missing
Weather: NSW  (no significant weather)
Text: BECMG 2310/2313 22011KT SCT012
Forecast period: 1000 UTC 23 March 2019 to 0600 UTC 24 March 2019
Forecast type: BECOMING: Conditions expected to become as follows by 1300 UTC 23 March 2019
Winds: from the SW (220 degrees) at 13 MPH (11 knots; 5.7 m/s)
Visibility: 6 or more miles 10+ km)
Ceiling: at least 12,000 feet AGL
Clouds: scattered clouds at 1200 feet AGL
Weather: NSW  (no significant weather)